sensor_id;sensor_type;location;lat;lon;timestamp;P1;durP1;ratioP1;P2;durP2;ratioP2
57463;SDS011;43309;44.418;26.122;2022-07-06T00:00:36;9.50;;;4.10;;
57463;SDS011;43309;44.418;26.122;2022-07-06T00:03:04;8.70;;;4.30;;
57463;SDS011;43309;44.418;26.122;2022-07-06T00:05:31;8.90;;;4.10;;
57463;SDS011;43309;44.418;26.122;2022-07-06T00:07:58;9.10;;;4.10;;
57463;SDS011;43309;44.418;26.122;2022-07-06T00:10:25;8.10;;;4.80;;
57463;SDS011;43309;44.418;26.122;2022-07-06T00:12:52;9.80;;;4.70;;
57463;SDS011;43309;44.418;26.122;2022-07-06T00:15:19;9.50;;;5.20;;
57463;SDS011;43309;44.418;26.122;2022-07-06T00:17:46;9.30;;;5.10;;
57463;SDS011;43309;44.418;26.122;2022-07-06T00:20:13;8.70;;;5.20;;
57463;SDS011;43309;44.418;26.122;2022-07-06T00:22:40;10.60;;;5.70;;
57463;SDS011;43309;44.418;26.122;2022-07-06T00:25:07;14.40;;;5.80;;
57463;SDS011;43309;44.418;26.122;2022-07-06T00:27:35;11.30;;;5.70;;
57463;SDS011;43309;44.418;26.122;2022-07-06T00:30:02;12.90;;;6.10;;
57463;SDS011;43309;44.418;26.122;2022-07-06T00:32:29;9.40;;;5.60;;
57463;SDS011;43309;44.418;26.122;2022-07-06T00:34:56;11.70;;;5.30;;
57463;SDS011;43309;44.418;26.122;2022-07-06T00:37:23;13.00;;;5.70;;
57463;SDS011;43309;44.418;26.122;2022-07-06T00:39:50;13.90;;;5.30;;
57463;SDS011;43309;44.418;26.122;2022-07-06T00:42:17;9.00;;;5.60;;
57463;SDS011;43309;44.418;26.122;2022-07-06T00:44:44;13.00;;;6.20;;
57463;SDS011;43309;44.418;26.122;2022-07-06T00:47:11;10.00;;;5.60;;
57463;SDS011;43309;44.418;26.122;2022-07-06T00:49:38;10.70;;;6.10;;
57463;SDS011;43309;44.418;26.122;2022-07-06T00:52:23;12.10;;;6.70;;
57463;SDS011;43309;44.418;26.122;2022-07-06T00:54:50;7.90;;;4.40;;
57463;SDS011;43309;44.418;26.122;2022-07-06T00:57:18;8.70;;;4.10;;
57463;SDS011;43309;44.418;26.122;2022-07-06T00:59:45;7.40;;;3.90;;
57463;SDS011;43309;44.418;26.122;2022-07-06T01:02:11;8.50;;;4.10;;
57463;SDS011;43309;44.418;26.122;2022-07-06T01:04:38;5.70;;;3.70;;
57463;SDS011;43309;44.418;26.122;2022-07-06T01:07:05;5.10;;;3.80;;
57463;SDS011;43309;44.418;26.122;2022-07-06T01:09:33;4.80;;;4.00;;
57463;SDS011;43309;44.418;26.122;2022-07-06T01:12:00;9.40;;;3.60;;
57463;SDS011;43309;44.418;26.122;2022-07-06T01:14:27;7.10;;;4.00;;
57463;SDS011;43309;44.418;26.122;2022-07-06T01:16:54;7.00;;;4.00;;
57463;SDS011;43309;44.418;26.122;2022-07-06T01:19:21;10.60;;;4.30;;
57463;SDS011;43309;44.418;26.122;2022-07-06T01:21:49;9.00;;;4.30;;
57463;SDS011;43309;44.418;26.122;2022-07-06T01:24:16;7.30;;;4.20;;
57463;SDS011;43309;44.418;26.122;2022-07-06T01:26:42;8.60;;;3.70;;
57463;SDS011;43309;44.418;26.122;2022-07-06T01:29:10;6.80;;;3.90;;
57463;SDS011;43309;44.418;26.122;2022-07-06T01:31:44;6.60;;;3.90;;
57463;SDS011;43309;44.418;26.122;2022-07-06T01:34:12;9.00;;;4.20;;
57463;SDS011;43309;44.418;26.122;2022-07-06T01:36:40;8.40;;;3.50;;
57463;SDS011;43309;44.418;26.122;2022-07-06T01:39:08;8.60;;;4.00;;
57463;SDS011;43309;44.418;26.122;2022-07-06T01:41:35;7.60;;;3.60;;
57463;SDS011;43309;44.418;26.122;2022-07-06T01:44:02;6.50;;;3.60;;
57463;SDS011;43309;44.418;26.122;2022-07-06T01:46:30;9.00;;;4.30;;
57463;SDS011;43309;44.418;26.122;2022-07-06T01:48:57;8.50;;;3.80;;
57463;SDS011;43309;44.418;26.122;2022-07-06T01:51:24;6.60;;;3.80;;
57463;SDS011;43309;44.418;26.122;2022-07-06T01:53:51;8.60;;;4.10;;
57463;SDS011;43309;44.418;26.122;2022-07-06T01:56:19;7.30;;;4.10;;
57463;SDS011;43309;44.418;26.122;2022-07-06T01:58:46;5.90;;;3.60;;
57463;SDS011;43309;44.418;26.122;2022-07-06T02:01:18;8.30;;;4.30;;
57463;SDS011;43309;44.418;26.122;2022-07-06T02:03:46;5.70;;;3.90;;
57463;SDS011;43309;44.418;26.122;2022-07-06T02:06:13;8.90;;;4.00;;
57463;SDS011;43309;44.418;26.122;2022-07-06T02:08:41;7.90;;;3.90;;
57463;SDS011;43309;44.418;26.122;2022-07-06T02:11:08;7.50;;;4.40;;
57463;SDS011;43309;44.418;26.122;2022-07-06T02:13:35;5.90;;;3.90;;
57463;SDS011;43309;44.418;26.122;2022-07-06T02:16:03;8.50;;;4.10;;
57463;SDS011;43309;44.418;26.122;2022-07-06T02:18:30;6.50;;;3.70;;
57463;SDS011;43309;44.418;26.122;2022-07-06T02:20:57;6.70;;;4.00;;
57463;SDS011;43309;44.418;26.122;2022-07-06T02:23:24;11.60;;;3.70;;
57463;SDS011;43309;44.418;26.122;2022-07-06T02:25:52;9.10;;;3.80;;
57463;SDS011;43309;44.418;26.122;2022-07-06T02:28:19;10.20;;;4.40;;
57463;SDS011;43309;44.418;26.122;2022-07-06T02:30:46;7.80;;;4.40;;
57463;SDS011;43309;44.418;26.122;2022-07-06T02:33:13;9.00;;;4.10;;
57463;SDS011;43309;44.418;26.122;2022-07-06T02:35:40;9.00;;;4.20;;
57463;SDS011;43309;44.418;26.122;2022-07-06T02:38:09;7.00;;;4.70;;
57463;SDS011;43309;44.418;26.122;2022-07-06T02:40:37;8.10;;;4.30;;
57463;SDS011;43309;44.418;26.122;2022-07-06T02:43:05;4.90;;;4.40;;
57463;SDS011;43309;44.418;26.122;2022-07-06T02:45:32;11.20;;;5.20;;
57463;SDS011;43309;44.418;26.122;2022-07-06T02:47:59;10.50;;;5.70;;
57463;SDS011;43309;44.418;26.122;2022-07-06T02:50:26;12.20;;;6.10;;
57463;SDS011;43309;44.418;26.122;2022-07-06T02:52:53;8.10;;;4.90;;
57463;SDS011;43309;44.418;26.122;2022-07-06T02:55:21;12.60;;;5.30;;
57463;SDS011;43309;44.418;26.122;2022-07-06T02:57:48;9.80;;;5.30;;
57463;SDS011;43309;44.418;26.122;2022-07-06T03:00:15;9.10;;;5.10;;
57463;SDS011;43309;44.418;26.122;2022-07-06T03:02:43;11.70;;;4.60;;
57463;SDS011;43309;44.418;26.122;2022-07-06T03:05:10;8.90;;;5.10;;
57463;SDS011;43309;44.418;26.122;2022-07-06T03:07:37;7.20;;;4.90;;
57463;SDS011;43309;44.418;26.122;2022-07-06T03:10:04;8.20;;;4.70;;
57463;SDS011;43309;44.418;26.122;2022-07-06T03:12:31;9.50;;;5.20;;
57463;SDS011;43309;44.418;26.122;2022-07-06T03:14:58;7.80;;;5.10;;
57463;SDS011;43309;44.418;26.122;2022-07-06T03:17:25;10.90;;;4.70;;
57463;SDS011;43309;44.418;26.122;2022-07-06T03:19:52;6.10;;;5.20;;
57463;SDS011;43309;44.418;26.122;2022-07-06T03:22:19;8.10;;;4.80;;
57463;SDS011;43309;44.418;26.122;2022-07-06T03:24:46;11.30;;;5.00;;
57463;SDS011;43309;44.418;26.122;2022-07-06T03:27:13;8.90;;;5.00;;
57463;SDS011;43309;44.418;26.122;2022-07-06T03:29:40;8.60;;;5.30;;
57463;SDS011;43309;44.418;26.122;2022-07-06T03:32:07;12.50;;;5.40;;
57463;SDS011;43309;44.418;26.122;2022-07-06T03:34:35;11.90;;;5.10;;
57463;SDS011;43309;44.418;26.122;2022-07-06T03:37:02;8.80;;;5.00;;
57463;SDS011;43309;44.418;26.122;2022-07-06T03:39:29;10.80;;;5.20;;
57463;SDS011;43309;44.418;26.122;2022-07-06T03:41:56;14.70;;;5.50;;
57463;SDS011;43309;44.418;26.122;2022-07-06T03:44:23;8.80;;;4.50;;
57463;SDS011;43309;44.418;26.122;2022-07-06T03:46:50;14.60;;;5.10;;
57463;SDS011;43309;44.418;26.122;2022-07-06T03:49:19;9.30;;;5.30;;
57463;SDS011;43309;44.418;26.122;2022-07-06T03:51:46;14.70;;;5.90;;
57463;SDS011;43309;44.418;26.122;2022-07-06T03:54:13;8.10;;;5.70;;
57463;SDS011;43309;44.418;26.122;2022-07-06T03:56:40;9.50;;;5.90;;
57463;SDS011;43309;44.418;26.122;2022-07-06T03:59:07;10.80;;;5.80;;
57463;SDS011;43309;44.418;26.122;2022-07-06T04:01:34;10.20;;;5.70;;
57463;SDS011;43309;44.418;26.122;2022-07-06T04:04:01;11.90;;;5.70;;
57463;SDS011;43309;44.418;26.122;2022-07-06T04:06:28;21.20;;;6.30;;
57463;SDS011;43309;44.418;26.122;2022-07-06T04:08:55;9.30;;;5.10;;
57463;SDS011;43309;44.418;26.122;2022-07-06T04:11:22;11.10;;;5.90;;
57463;SDS011;43309;44.418;26.122;2022-07-06T04:13:49;17.60;;;7.10;;
57463;SDS011;43309;44.418;26.122;2022-07-06T04:16:16;14.80;;;6.10;;
57463;SDS011;43309;44.418;26.122;2022-07-06T04:18:43;14.40;;;6.20;;
57463;SDS011;43309;44.418;26.122;2022-07-06T04:21:10;17.10;;;6.90;;
57463;SDS011;43309;44.418;26.122;2022-07-06T04:23:37;18.40;;;7.90;;
57463;SDS011;43309;44.418;26.122;2022-07-06T04:26:04;14.30;;;7.00;;
57463;SDS011;43309;44.418;26.122;2022-07-06T04:28:31;14.50;;;6.30;;
57463;SDS011;43309;44.418;26.122;2022-07-06T04:30:58;15.60;;;5.90;;
57463;SDS011;43309;44.418;26.122;2022-07-06T04:33:25;11.30;;;5.30;;
57463;SDS011;43309;44.418;26.122;2022-07-06T04:35:52;14.00;;;6.00;;
57463;SDS011;43309;44.418;26.122;2022-07-06T04:38:19;14.20;;;6.00;;
57463;SDS011;43309;44.418;26.122;2022-07-06T04:40:46;12.60;;;5.20;;
57463;SDS011;43309;44.418;26.122;2022-07-06T04:43:13;18.20;;;6.60;;
57463;SDS011;43309;44.418;26.122;2022-07-06T04:45:40;13.10;;;5.70;;
57463;SDS011;43309;44.418;26.122;2022-07-06T04:48:08;13.00;;;6.40;;
57463;SDS011;43309;44.418;26.122;2022-07-06T04:50:35;14.40;;;5.70;;
57463;SDS011;43309;44.418;26.122;2022-07-06T04:53:02;12.90;;;6.30;;
57463;SDS011;43309;44.418;26.122;2022-07-06T04:55:29;11.70;;;5.40;;
57463;SDS011;43309;44.418;26.122;2022-07-06T04:57:56;13.80;;;5.10;;
57463;SDS011;43309;44.418;26.122;2022-07-06T05:00:23;11.90;;;5.20;;
57463;SDS011;43309;44.418;26.122;2022-07-06T05:02:50;16.90;;;5.60;;
57463;SDS011;43309;44.418;26.122;2022-07-06T05:05:17;18.40;;;6.50;;
57463;SDS011;43309;44.418;26.122;2022-07-06T05:07:44;19.10;;;6.20;;
57463;SDS011;43309;44.418;26.122;2022-07-06T05:10:11;15.70;;;4.80;;
57463;SDS011;43309;44.418;26.122;2022-07-06T05:12:38;13.60;;;5.20;;
57463;SDS011;43309;44.418;26.122;2022-07-06T05:15:06;23.10;;;5.90;;
57463;SDS011;43309;44.418;26.122;2022-07-06T05:17:33;17.70;;;5.70;;
57463;SDS011;43309;44.418;26.122;2022-07-06T05:20:00;21.40;;;5.50;;
57463;SDS011;43309;44.418;26.122;2022-07-06T05:22:27;24.70;;;5.20;;
57463;SDS011;43309;44.418;26.122;2022-07-06T05:24:54;20.30;;;5.30;;
57463;SDS011;43309;44.418;26.122;2022-07-06T05:27:21;15.40;;;5.50;;
57463;SDS011;43309;44.418;26.122;2022-07-06T05:29:48;17.80;;;5.20;;
57463;SDS011;43309;44.418;26.122;2022-07-06T05:32:16;16.60;;;5.70;;
57463;SDS011;43309;44.418;26.122;2022-07-06T05:34:42;17.80;;;5.20;;
57463;SDS011;43309;44.418;26.122;2022-07-06T05:37:09;18.00;;;6.00;;
57463;SDS011;43309;44.418;26.122;2022-07-06T05:39:37;17.70;;;5.40;;
57463;SDS011;43309;44.418;26.122;2022-07-06T05:42:05;14.50;;;5.10;;
57463;SDS011;43309;44.418;26.122;2022-07-06T05:44:32;13.70;;;5.60;;
57463;SDS011;43309;44.418;26.122;2022-07-06T05:46:59;17.90;;;5.10;;
57463;SDS011;43309;44.418;26.122;2022-07-06T05:49:46;14.40;;;5.40;;
57463;SDS011;43309;44.418;26.122;2022-07-06T05:52:31;18.70;;;5.10;;
57463;SDS011;43309;44.418;26.122;2022-07-06T05:54:58;14.90;;;5.10;;
57463;SDS011;43309;44.418;26.122;2022-07-06T05:57:25;13.70;;;5.30;;
57463;SDS011;43309;44.418;26.122;2022-07-06T05:59:53;10.90;;;5.00;;
57463;SDS011;43309;44.418;26.122;2022-07-06T06:02:19;13.10;;;5.00;;
57463;SDS011;43309;44.418;26.122;2022-07-06T06:04:46;11.70;;;4.40;;
57463;SDS011;43309;44.418;26.122;2022-07-06T06:07:13;9.50;;;4.70;;
57463;SDS011;43309;44.418;26.122;2022-07-06T06:09:40;11.10;;;4.40;;
57463;SDS011;43309;44.418;26.122;2022-07-06T06:12:07;15.30;;;4.40;;
57463;SDS011;43309;44.418;26.122;2022-07-06T06:14:34;15.10;;;5.30;;
57463;SDS011;43309;44.418;26.122;2022-07-06T06:17:01;15.00;;;5.50;;
57463;SDS011;43309;44.418;26.122;2022-07-06T06:19:28;13.70;;;4.80;;
57463;SDS011;43309;44.418;26.122;2022-07-06T06:21:55;11.70;;;4.70;;
57463;SDS011;43309;44.418;26.122;2022-07-06T06:24:22;14.80;;;4.70;;
57463;SDS011;43309;44.418;26.122;2022-07-06T06:26:50;19.00;;;5.50;;
57463;SDS011;43309;44.418;26.122;2022-07-06T06:29:17;11.40;;;5.10;;
57463;SDS011;43309;44.418;26.122;2022-07-06T06:31:44;16.10;;;5.50;;
57463;SDS011;43309;44.418;26.122;2022-07-06T06:34:11;17.30;;;5.20;;
57463;SDS011;43309;44.418;26.122;2022-07-06T06:36:38;12.70;;;4.60;;
57463;SDS011;43309;44.418;26.122;2022-07-06T06:39:05;13.40;;;5.10;;
57463;SDS011;43309;44.418;26.122;2022-07-06T06:41:32;13.60;;;4.90;;
57463;SDS011;43309;44.418;26.122;2022-07-06T06:43:59;19.90;;;5.50;;
57463;SDS011;43309;44.418;26.122;2022-07-06T06:46:26;17.40;;;5.60;;
57463;SDS011;43309;44.418;26.122;2022-07-06T06:48:53;9.10;;;5.10;;
57463;SDS011;43309;44.418;26.122;2022-07-06T06:51:20;12.80;;;5.30;;
57463;SDS011;43309;44.418;26.122;2022-07-06T06:53:47;7.70;;;4.90;;
57463;SDS011;43309;44.418;26.122;2022-07-06T06:56:14;11.70;;;5.40;;
57463;SDS011;43309;44.418;26.122;2022-07-06T06:58:41;10.20;;;5.10;;
57463;SDS011;43309;44.418;26.122;2022-07-06T07:01:08;12.40;;;4.70;;
57463;SDS011;43309;44.418;26.122;2022-07-06T07:03:35;11.80;;;5.20;;
57463;SDS011;43309;44.418;26.122;2022-07-06T07:06:03;12.00;;;5.10;;
57463;SDS011;43309;44.418;26.122;2022-07-06T07:08:30;8.30;;;4.80;;
57463;SDS011;43309;44.418;26.122;2022-07-06T07:10:57;8.30;;;5.30;;
57463;SDS011;43309;44.418;26.122;2022-07-06T07:13:24;16.10;;;5.50;;
57463;SDS011;43309;44.418;26.122;2022-07-06T07:15:51;9.10;;;4.80;;
57463;SDS011;43309;44.418;26.122;2022-07-06T07:18:18;14.10;;;5.60;;
57463;SDS011;43309;44.418;26.122;2022-07-06T07:20:45;12.40;;;4.90;;
57463;SDS011;43309;44.418;26.122;2022-07-06T07:23:12;9.70;;;4.70;;
57463;SDS011;43309;44.418;26.122;2022-07-06T07:25:39;10.10;;;5.50;;
57463;SDS011;43309;44.418;26.122;2022-07-06T07:28:06;17.80;;;5.50;;
57463;SDS011;43309;44.418;26.122;2022-07-06T07:30:33;14.80;;;4.80;;
57463;SDS011;43309;44.418;26.122;2022-07-06T07:33:00;14.20;;;5.00;;
57463;SDS011;43309;44.418;26.122;2022-07-06T07:35:27;16.90;;;5.40;;
57463;SDS011;43309;44.418;26.122;2022-07-06T07:37:55;16.20;;;5.80;;
57463;SDS011;43309;44.418;26.122;2022-07-06T07:40:22;14.40;;;4.80;;
57463;SDS011;43309;44.418;26.122;2022-07-06T07:42:49;12.50;;;5.10;;
57463;SDS011;43309;44.418;26.122;2022-07-06T07:45:16;11.10;;;4.90;;
57463;SDS011;43309;44.418;26.122;2022-07-06T07:47:43;12.70;;;5.40;;
57463;SDS011;43309;44.418;26.122;2022-07-06T07:50:10;15.80;;;5.50;;
57463;SDS011;43309;44.418;26.122;2022-07-06T07:52:37;10.20;;;5.20;;
57463;SDS011;43309;44.418;26.122;2022-07-06T07:55:05;11.70;;;5.20;;
57463;SDS011;43309;44.418;26.122;2022-07-06T07:57:32;28.60;;;6.90;;
57463;SDS011;43309;44.418;26.122;2022-07-06T07:59:59;8.70;;;5.20;;
57463;SDS011;43309;44.418;26.122;2022-07-06T08:02:26;15.80;;;5.30;;
57463;SDS011;43309;44.418;26.122;2022-07-06T08:04:53;13.10;;;4.90;;
57463;SDS011;43309;44.418;26.122;2022-07-06T08:07:20;12.00;;;5.40;;
57463;SDS011;43309;44.418;26.122;2022-07-06T08:09:47;14.40;;;5.40;;
57463;SDS011;43309;44.418;26.122;2022-07-06T08:12:14;9.90;;;5.70;;
57463;SDS011;43309;44.418;26.122;2022-07-06T08:14:41;17.80;;;5.80;;
57463;SDS011;43309;44.418;26.122;2022-07-06T08:17:08;10.70;;;5.40;;
57463;SDS011;43309;44.418;26.122;2022-07-06T08:19:35;12.40;;;5.30;;
57463;SDS011;43309;44.418;26.122;2022-07-06T08:22:02;7.90;;;5.00;;
57463;SDS011;43309;44.418;26.122;2022-07-06T08:24:34;13.10;;;5.00;;
57463;SDS011;43309;44.418;26.122;2022-07-06T08:27:01;11.90;;;4.80;;
57463;SDS011;43309;44.418;26.122;2022-07-06T08:29:30;13.20;;;5.60;;
57463;SDS011;43309;44.418;26.122;2022-07-06T08:31:57;8.40;;;5.30;;
57463;SDS011;43309;44.418;26.122;2022-07-06T08:34:24;16.40;;;4.90;;
57463;SDS011;43309;44.418;26.122;2022-07-06T08:36:52;7.70;;;4.40;;
57463;SDS011;43309;44.418;26.122;2022-07-06T08:39:19;11.10;;;5.60;;
57463;SDS011;43309;44.418;26.122;2022-07-06T08:41:46;8.90;;;4.90;;
57463;SDS011;43309;44.418;26.122;2022-07-06T08:44:14;8.50;;;5.60;;
57463;SDS011;43309;44.418;26.122;2022-07-06T08:46:42;11.90;;;5.80;;
57463;SDS011;43309;44.418;26.122;2022-07-06T08:49:12;8.80;;;5.40;;
57463;SDS011;43309;44.418;26.122;2022-07-06T08:51:39;6.70;;;4.90;;
57463;SDS011;43309;44.418;26.122;2022-07-06T08:54:07;12.70;;;5.20;;
57463;SDS011;43309;44.418;26.122;2022-07-06T08:56:34;12.10;;;5.50;;
57463;SDS011;43309;44.418;26.122;2022-07-06T08:59:01;8.00;;;5.10;;
57463;SDS011;43309;44.418;26.122;2022-07-06T09:01:28;8.50;;;4.70;;
57463;SDS011;43309;44.418;26.122;2022-07-06T09:03:55;7.70;;;5.10;;
57463;SDS011;43309;44.418;26.122;2022-07-06T09:06:23;12.20;;;4.80;;
57463;SDS011;43309;44.418;26.122;2022-07-06T09:08:53;7.80;;;5.20;;
57463;SDS011;43309;44.418;26.122;2022-07-06T09:11:23;7.20;;;4.90;;
57463;SDS011;43309;44.418;26.122;2022-07-06T09:13:51;7.00;;;4.80;;
57463;SDS011;43309;44.418;26.122;2022-07-06T09:16:24;7.80;;;5.00;;
57463;SDS011;43309;44.418;26.122;2022-07-06T09:18:51;12.30;;;5.10;;
57463;SDS011;43309;44.418;26.122;2022-07-06T09:21:25;7.10;;;5.60;;
57463;SDS011;43309;44.418;26.122;2022-07-06T09:23:53;12.90;;;5.30;;
57463;SDS011;43309;44.418;26.122;2022-07-06T09:26:20;8.70;;;5.40;;
57463;SDS011;43309;44.418;26.122;2022-07-06T09:28:47;10.10;;;5.60;;
57463;SDS011;43309;44.418;26.122;2022-07-06T09:31:14;10.60;;;5.60;;
57463;SDS011;43309;44.418;26.122;2022-07-06T09:34:01;9.70;;;4.90;;
57463;SDS011;43309;44.418;26.122;2022-07-06T09:36:40;11.00;;;5.50;;
57463;SDS011;43309;44.418;26.122;2022-07-06T09:41:44;10.10;;;5.50;;
57463;SDS011;43309;44.418;26.122;2022-07-06T09:44:11;11.30;;;5.50;;
57463;SDS011;43309;44.418;26.122;2022-07-06T09:46:41;7.70;;;5.70;;
57463;SDS011;43309;44.418;26.122;2022-07-06T09:49:08;10.30;;;6.80;;
57463;SDS011;43309;44.418;26.122;2022-07-06T09:51:36;12.20;;;7.70;;
57463;SDS011;43309;44.418;26.122;2022-07-06T09:54:07;11.30;;;8.10;;
57463;SDS011;43309;44.418;26.122;2022-07-06T09:56:36;14.20;;;8.20;;
57463;SDS011;43309;44.418;26.122;2022-07-06T09:59:10;18.00;;;8.80;;
57463;SDS011;43309;44.418;26.122;2022-07-06T10:01:38;16.90;;;8.00;;
57463;SDS011;43309;44.418;26.122;2022-07-06T10:04:06;16.60;;;8.60;;
57463;SDS011;43309;44.418;26.122;2022-07-06T10:06:33;16.10;;;8.10;;
57463;SDS011;43309;44.418;26.122;2022-07-06T10:09:00;12.80;;;8.00;;
57463;SDS011;43309;44.418;26.122;2022-07-06T10:11:28;9.70;;;6.80;;
57463;SDS011;43309;44.418;26.122;2022-07-06T10:13:55;12.30;;;7.30;;
57463;SDS011;43309;44.418;26.122;2022-07-06T10:16:23;10.20;;;7.70;;
57463;SDS011;43309;44.418;26.122;2022-07-06T10:18:51;10.90;;;8.00;;
57463;SDS011;43309;44.418;26.122;2022-07-06T10:21:21;14.60;;;7.60;;
57463;SDS011;43309;44.418;26.122;2022-07-06T10:23:49;10.90;;;7.60;;
57463;SDS011;43309;44.418;26.122;2022-07-06T10:26:16;11.70;;;7.70;;
57463;SDS011;43309;44.418;26.122;2022-07-06T10:28:44;11.10;;;7.70;;
57463;SDS011;43309;44.418;26.122;2022-07-06T10:31:14;12.00;;;7.20;;
57463;SDS011;43309;44.418;26.122;2022-07-06T10:33:42;16.00;;;7.30;;
57463;SDS011;43309;44.418;26.122;2022-07-06T10:36:10;11.20;;;7.80;;
57463;SDS011;43309;44.418;26.122;2022-07-06T10:38:38;8.70;;;7.70;;
57463;SDS011;43309;44.418;26.122;2022-07-06T10:41:05;12.60;;;7.30;;
57463;SDS011;43309;44.418;26.122;2022-07-06T10:43:33;14.90;;;7.10;;
57463;SDS011;43309;44.418;26.122;2022-07-06T10:46:10;15.70;;;7.70;;
57463;SDS011;43309;44.418;26.122;2022-07-06T10:48:38;11.20;;;7.50;;
57463;SDS011;43309;44.418;26.122;2022-07-06T10:51:06;9.30;;;7.20;;
57463;SDS011;43309;44.418;26.122;2022-07-06T10:53:34;15.70;;;7.60;;
57463;SDS011;43309;44.418;26.122;2022-07-06T10:56:03;12.40;;;7.20;;
57463;SDS011;43309;44.418;26.122;2022-07-06T10:58:34;8.90;;;6.60;;
57463;SDS011;43309;44.418;26.122;2022-07-06T11:01:01;9.90;;;6.80;;
57463;SDS011;43309;44.418;26.122;2022-07-06T11:06:04;10.40;;;6.40;;
57463;SDS011;43309;44.418;26.122;2022-07-06T11:08:44;7.40;;;6.50;;
57463;SDS011;43309;44.418;26.122;2022-07-06T11:13:42;14.10;;;7.20;;
57463;SDS011;43309;44.418;26.122;2022-07-06T11:16:10;11.40;;;6.60;;
57463;SDS011;43309;44.418;26.122;2022-07-06T11:18:41;8.40;;;7.20;;
57463;SDS011;43309;44.418;26.122;2022-07-06T11:21:15;10.60;;;6.50;;
57463;SDS011;43309;44.418;26.122;2022-07-06T11:23:42;12.60;;;7.20;;
57463;SDS011;43309;44.418;26.122;2022-07-06T11:26:10;7.70;;;6.90;;
57463;SDS011;43309;44.418;26.122;2022-07-06T11:28:37;11.80;;;7.10;;
57463;SDS011;43309;44.418;26.122;2022-07-06T11:31:04;9.10;;;7.30;;
57463;SDS011;43309;44.418;26.122;2022-07-06T11:33:31;12.40;;;6.60;;
57463;SDS011;43309;44.418;26.122;2022-07-06T11:38:58;10.80;;;6.70;;
57463;SDS011;43309;44.418;26.122;2022-07-06T11:41:25;9.50;;;6.60;;
57463;SDS011;43309;44.418;26.122;2022-07-06T11:43:52;11.50;;;7.00;;
57463;SDS011;43309;44.418;26.122;2022-07-06T11:48:50;8.30;;;7.10;;
57463;SDS011;43309;44.418;26.122;2022-07-06T11:51:17;13.70;;;6.70;;
57463;SDS011;43309;44.418;26.122;2022-07-06T11:53:45;11.30;;;6.70;;
57463;SDS011;43309;44.418;26.122;2022-07-06T11:56:14;8.50;;;6.80;;
57463;SDS011;43309;44.418;26.122;2022-07-06T11:58:41;12.30;;;6.50;;
57463;SDS011;43309;44.418;26.122;2022-07-06T12:01:10;12.20;;;6.70;;
57463;SDS011;43309;44.418;26.122;2022-07-06T12:03:37;7.20;;;5.90;;
57463;SDS011;43309;44.418;26.122;2022-07-06T12:06:05;10.20;;;6.80;;
57463;SDS011;43309;44.418;26.122;2022-07-06T12:08:40;10.80;;;6.40;;
57463;SDS011;43309;44.418;26.122;2022-07-06T12:11:07;14.80;;;7.20;;
57463;SDS011;43309;44.418;26.122;2022-07-06T12:13:38;9.10;;;6.30;;
57463;SDS011;43309;44.418;26.122;2022-07-06T12:16:09;11.80;;;6.50;;
57463;SDS011;43309;44.418;26.122;2022-07-06T12:18:37;7.80;;;6.30;;
57463;SDS011;43309;44.418;26.122;2022-07-06T12:21:06;7.80;;;6.40;;
57463;SDS011;43309;44.418;26.122;2022-07-06T12:23:40;8.60;;;6.10;;
57463;SDS011;43309;44.418;26.122;2022-07-06T12:26:08;7.60;;;6.50;;
57463;SDS011;43309;44.418;26.122;2022-07-06T12:28:35;11.60;;;6.80;;
57463;SDS011;43309;44.418;26.122;2022-07-06T12:31:02;6.30;;;5.70;;
57463;SDS011;43309;44.418;26.122;2022-07-06T12:33:30;6.80;;;6.20;;
57463;SDS011;43309;44.418;26.122;2022-07-06T12:35:57;7.40;;;6.00;;
57463;SDS011;43309;44.418;26.122;2022-07-06T12:38:34;9.60;;;5.90;;
57463;SDS011;43309;44.418;26.122;2022-07-06T12:41:01;7.20;;;5.70;;
57463;SDS011;43309;44.418;26.122;2022-07-06T12:43:39;9.00;;;5.60;;
57463;SDS011;43309;44.418;26.122;2022-07-06T12:46:22;11.80;;;5.80;;
57463;SDS011;43309;44.418;26.122;2022-07-06T12:48:53;7.70;;;6.00;;
57463;SDS011;43309;44.418;26.122;2022-07-06T12:51:20;6.40;;;5.50;;
57463;SDS011;43309;44.418;26.122;2022-07-06T12:53:48;10.20;;;6.40;;
57463;SDS011;43309;44.418;26.122;2022-07-06T12:56:15;8.10;;;5.90;;
57463;SDS011;43309;44.418;26.122;2022-07-06T12:58:58;8.60;;;5.70;;
57463;SDS011;43309;44.418;26.122;2022-07-06T13:01:25;7.80;;;5.90;;
57463;SDS011;43309;44.418;26.122;2022-07-06T13:03:53;8.00;;;5.20;;
57463;SDS011;43309;44.418;26.122;2022-07-06T13:06:31;9.90;;;6.00;;
57463;SDS011;43309;44.418;26.122;2022-07-06T13:08:58;6.80;;;6.10;;
57463;SDS011;43309;44.418;26.122;2022-07-06T13:11:25;14.70;;;5.80;;
57463;SDS011;43309;44.418;26.122;2022-07-06T13:13:52;9.80;;;6.20;;
57463;SDS011;43309;44.418;26.122;2022-07-06T13:16:19;12.00;;;6.50;;
57463;SDS011;43309;44.418;26.122;2022-07-06T13:18:46;13.40;;;6.00;;
57463;SDS011;43309;44.418;26.122;2022-07-06T13:21:13;7.70;;;5.50;;
57463;SDS011;43309;44.418;26.122;2022-07-06T13:23:40;11.80;;;6.10;;
57463;SDS011;43309;44.418;26.122;2022-07-06T13:26:07;9.60;;;5.30;;
57463;SDS011;43309;44.418;26.122;2022-07-06T13:28:34;6.70;;;5.70;;
57463;SDS011;43309;44.418;26.122;2022-07-06T13:31:01;6.10;;;5.50;;
57463;SDS011;43309;44.418;26.122;2022-07-06T13:33:28;7.90;;;4.90;;
57463;SDS011;43309;44.418;26.122;2022-07-06T13:35:55;11.90;;;6.80;;
57463;SDS011;43309;44.418;26.122;2022-07-06T13:38:22;9.00;;;5.60;;
57463;SDS011;43309;44.418;26.122;2022-07-06T13:40:49;10.00;;;5.50;;
57463;SDS011;43309;44.418;26.122;2022-07-06T13:43:16;11.60;;;6.30;;
57463;SDS011;43309;44.418;26.122;2022-07-06T13:45:43;10.30;;;6.00;;
57463;SDS011;43309;44.418;26.122;2022-07-06T13:48:10;9.80;;;5.50;;
57463;SDS011;43309;44.418;26.122;2022-07-06T13:50:37;9.90;;;5.40;;
57463;SDS011;43309;44.418;26.122;2022-07-06T13:53:04;8.10;;;5.70;;
57463;SDS011;43309;44.418;26.122;2022-07-06T13:55:31;5.50;;;4.70;;
57463;SDS011;43309;44.418;26.122;2022-07-06T13:57:58;8.60;;;5.50;;
57463;SDS011;43309;44.418;26.122;2022-07-06T14:00:25;6.00;;;4.90;;
57463;SDS011;43309;44.418;26.122;2022-07-06T14:02:52;11.20;;;5.70;;
57463;SDS011;43309;44.418;26.122;2022-07-06T14:05:19;9.30;;;5.50;;
57463;SDS011;43309;44.418;26.122;2022-07-06T14:07:46;5.40;;;4.80;;
57463;SDS011;43309;44.418;26.122;2022-07-06T14:10:13;9.50;;;5.60;;
57463;SDS011;43309;44.418;26.122;2022-07-06T14:12:40;6.30;;;5.50;;
57463;SDS011;43309;44.418;26.122;2022-07-06T14:15:07;5.90;;;5.20;;
57463;SDS011;43309;44.418;26.122;2022-07-06T14:17:34;7.70;;;4.80;;
57463;SDS011;43309;44.418;26.122;2022-07-06T14:20:01;9.90;;;5.10;;
57463;SDS011;43309;44.418;26.122;2022-07-06T14:22:28;6.40;;;4.90;;
57463;SDS011;43309;44.418;26.122;2022-07-06T14:24:55;12.70;;;5.30;;
57463;SDS011;43309;44.418;26.122;2022-07-06T14:27:22;5.80;;;4.50;;
57463;SDS011;43309;44.418;26.122;2022-07-06T14:29:49;8.90;;;5.50;;
57463;SDS011;43309;44.418;26.122;2022-07-06T14:32:16;8.80;;;4.80;;
57463;SDS011;43309;44.418;26.122;2022-07-06T14:34:44;5.80;;;4.50;;
57463;SDS011;43309;44.418;26.122;2022-07-06T14:37:11;9.50;;;5.00;;
57463;SDS011;43309;44.418;26.122;2022-07-06T14:39:39;7.60;;;4.80;;
57463;SDS011;43309;44.418;26.122;2022-07-06T14:42:06;7.20;;;4.30;;
57463;SDS011;43309;44.418;26.122;2022-07-06T14:44:34;6.30;;;4.20;;